Time;durP1;ratioP1;P1;durP2;ratioP2;P2;SDS_P1;SDS_P2;PMS_P1;PMS_P2;Temp;Humidity;BMP_temperature;BMP_pressure;BME280_temperature;BME280_humidity;BME280_pressure;Samples;Min_cycle;Max_cycle;Signal;HPM_P1;HPM_P2
2023/11/14 00:01:20;;;;;;;37.45;22.75;;;;;;;9.34;100.00;99622.44;5091504;28;20097;-45
2023/11/14 00:03:49;;;;;;;34.53;21.30;;;;;;;9.42;100.00;99609.47;5091141;28;20525;-45
2023/11/14 00:06:17;;;;;;;32.67;21.70;;;;;;;9.15;100.00;99628.94;5091256;28;20338;-44
2023/11/14 00:08:47;;;;;;;34.72;22.13;;;;;;;9.18;100.00;99622.59;5091263;28;20163;-45
2023/11/14 00:11:16;;;;;;;36.05;23.50;;;;;;;9.23;100.00;99622.28;5090950;28;20051;-45
2023/11/14 00:13:46;;;;;;;32.22;22.38;;;;;;;9.28;100.00;99601.56;5091171;28;20410;-45
2023/11/14 00:16:16;;;;;;;32.60;21.05;;;;;;;9.13;100.00;99593.59;5091054;28;20540;-46
2023/11/14 00:18:44;;;;;;;36.15;22.13;;;;;;;9.21;100.00;99602.91;5090942;28;20052;-45
2023/11/14 00:21:12;;;;;;;31.77;20.85;;;;;;;9.26;100.00;99608.75;5091123;28;20046;-44
2023/11/14 00:23:41;;;;;;;32.58;21.83;;;;;;;9.14;100.00;99616.59;5090674;28;20659;-45
2023/11/14 00:26:10;;;;;;;33.42;21.92;;;;;;;8.99;100.00;99617.59;5090878;28;20048;-46
2023/11/14 00:28:39;;;;;;;35.28;21.90;;;;;;;8.89;100.00;99611.16;5091144;28;20401;-45
2023/11/14 00:31:07;;;;;;;31.55;20.75;;;;;;;8.88;100.00;99610.28;5090797;28;20044;-45
2023/11/14 00:33:41;;;;;;;32.55;21.48;;;;;;;8.99;100.00;99583.00;5091079;28;20109;-44
2023/11/14 00:36:12;;;;;;;35.38;21.90;;;;;;;9.00;100.00;99582.06;5090892;28;20048;-45
2023/11/14 00:38:40;;;;;;;31.67;21.30;;;;;;;9.09;100.00;99569.97;5090817;28;20078;-45
2023/11/14 00:41:09;;;;;;;36.00;21.35;;;;;;;9.11;100.00;99558.25;5093872;28;20079;-44
2023/11/14 00:43:37;;;;;;;32.72;20.85;;;;;;;9.12;100.00;99538.69;5094277;28;20044;-45
2023/11/14 00:46:11;;;;;;;32.45;20.73;;;;;;;9.13;100.00;99532.41;5094772;28;20422;-44
2023/11/14 00:48:42;;;;;;;31.77;20.20;;;;;;;9.12;100.00;99537.81;5094850;28;20071;-44
2023/11/14 00:51:11;;;;;;;28.45;18.77;;;;;;;9.15;100.00;99538.47;5094924;28;20044;-44
2023/11/14 00:53:40;;;;;;;30.95;20.70;;;;;;;9.21;100.00;99533.72;5094776;28;20051;-44
2023/11/14 00:56:14;;;;;;;30.45;20.15;;;;;;;9.23;100.00;99537.13;5094658;28;20088;-45
2023/11/14 00:58:44;;;;;;;31.00;20.30;;;;;;;9.28;100.00;99553.66;5094412;28;20051;-45
2023/11/14 01:01:12;;;;;;;32.38;19.95;;;;;;;9.31;100.00;99556.09;5094434;28;20130;-45
2023/11/14 01:03:42;;;;;;;33.50;20.35;;;;;;;9.22;100.00;99554.03;5094219;28;20060;-46
2023/11/14 01:06:11;;;;;;;29.27;19.45;;;;;;;9.21;100.00;99547.88;5094576;28;20051;-44
2023/11/14 01:08:39;;;;;;;32.55;19.90;;;;;;;9.14;100.00;99542.09;5094158;28;20044;-44
2023/11/14 01:11:07;;;;;;;32.42;20.10;;;;;;;8.97;100.00;99554.78;5094424;28;20078;-43
2023/11/14 01:13:36;;;;;;;32.40;20.20;;;;;;;8.97;100.00;99539.66;5094011;28;20579;-45
2023/11/14 01:16:05;;;;;;;31.45;21.15;;;;;;;8.94;100.00;99529.22;5094021;28;20050;-45
2023/11/14 01:18:37;;;;;;;33.80;21.65;;;;;;;8.92;100.00;99546.25;5094127;28;20139;-44
2023/11/14 01:21:15;;;;;;;32.35;21.65;;;;;;;8.89;100.00;99547.31;5094440;28;20134;-45
2023/11/14 01:23:44;;;;;;;32.63;21.52;;;;;;;8.91;100.00;99545.41;5093798;28;20056;-45
2023/11/14 01:26:13;;;;;;;34.65;21.70;;;;;;;8.83;100.00;99543.22;5093468;28;20048;-45
2023/11/14 01:28:44;;;;;;;35.17;22.42;;;;;;;8.87;100.00;99546.53;5093272;28;20063;-46
2023/11/14 01:31:20;;;;;;;33.67;22.05;;;;;;;8.91;100.00;99529.44;5094121;28;20055;-44
2023/11/14 01:33:48;;;;;;;35.53;21.85;;;;;;;8.85;100.00;99508.56;5093852;28;20146;-44
2023/11/14 01:36:22;;;;;;;35.03;21.25;;;;;;;8.90;100.00;99498.47;5093824;28;20135;-44
2023/11/14 01:38:50;;;;;;;30.45;20.45;;;;;;;8.95;100.00;99498.16;5092580;28;20449;-43
2023/11/14 01:41:18;;;;;;;32.08;20.98;;;;;;;9.07;100.00;99515.97;5093592;28;20047;-44
2023/11/14 01:43:47;;;;;;;31.27;20.80;;;;;;;8.93;100.00;99519.56;5093747;28;20044;-45
2023/11/14 01:46:18;;;;;;;31.02;21.75;;;;;;;9.03;100.00;99523.31;5092233;28;20044;-44
2023/11/14 01:48:51;;;;;;;33.17;20.90;;;;;;;8.99;100.00;99531.63;5093526;28;20040;-44
2023/11/14 01:51:21;;;;;;;32.58;20.92;;;;;;;8.82;100.00;99517.59;5092229;28;20124;-44
2023/11/14 01:53:54;;;;;;;32.10;21.35;;;;;;;8.82;100.00;99508.75;5093137;28;20139;-44
2023/11/14 01:56:22;;;;;;;;;;;;;;;8.97;100.00;99499.75;5093928;28;20048;-44
2023/11/14 01:58:51;;;;;;;36.60;21.75;;;;;;;8.90;100.00;99490.50;5093313;28;19920;-43
2023/11/14 02:01:23;;;;;;;31.63;20.77;;;;;;;8.95;100.00;99492.84;5093273;28;20458;-45
2023/11/14 02:03:51;;;;;;;33.40;20.90;;;;;;;8.97;100.00;99469.66;5093133;28;20059;-47
2023/11/14 02:06:20;;;;;;;32.90;20.83;;;;;;;9.01;100.00;99464.06;5092899;28;20140;-45
2023/11/14 02:08:49;;;;;;;32.80;20.55;;;;;;;9.04;100.00;99471.81;5091660;28;20044;-43
2023/11/14 02:11:19;;;;;;;33.13;21.55;;;;;;;9.01;100.00;99480.00;5092959;28;20064;-44
2023/11/14 02:13:47;;;;;;;31.45;20.42;;;;;;;9.16;100.00;99476.31;5093397;28;20137;-44
2023/11/14 02:16:16;;;;;;;31.23;19.65;;;;;;;9.06;100.00;99474.38;5093025;28;20504;-44
2023/11/14 02:18:49;;;;;;;31.92;20.13;;;;;;;9.14;100.00;99474.72;5092833;28;20044;-44
2023/11/14 02:21:17;;;;;;;29.23;19.25;;;;;;;9.09;100.00;99469.72;5093399;28;20135;-45
2023/11/14 02:23:53;;;;;;;32.00;20.05;;;;;;;9.08;100.00;99457.38;5092910;28;20059;-44
2023/11/14 02:26:23;;;;;;;30.63;20.30;;;;;;;9.11;100.00;99445.66;5093082;28;20123;-44
2023/11/14 02:28:56;;;;;;;31.70;20.73;;;;;;;9.12;100.00;99450.03;5092857;28;20408;-44
2023/11/14 02:31:25;;;;;;;30.40;19.92;;;;;;;9.05;100.00;99448.72;5092657;28;20144;-46
2023/11/14 02:33:53;;;;;;;28.35;19.50;;;;;;;9.08;100.00;99438.75;5092879;28;20044;-44
2023/11/14 02:36:21;;;;;;;31.52;19.73;;;;;;;9.02;100.00;99441.81;5092914;28;20044;-44
2023/11/14 02:38:50;;;;;;;30.05;19.73;;;;;;;9.10;100.00;99439.50;5092661;28;20044;-44
2023/11/14 02:41:18;;;;;;;31.15;20.25;;;;;;;9.03;100.00;99422.22;5092485;28;20409;-46
2023/11/14 02:43:48;;;;;;;32.22;20.65;;;;;;;9.07;100.00;99439.72;5092426;28;20059;-45
2023/11/14 02:46:17;;;;;;;28.77;18.85;;;;;;;9.14;100.00;99464.94;5092395;28;20132;-45
2023/11/14 02:48:45;;;;;;;30.77;19.65;;;;;;;9.28;100.00;99473.81;5092680;28;20075;-45
2023/11/14 02:51:16;;;;;;;30.27;20.23;;;;;;;9.27;100.00;99466.78;5092462;28;20054;-44
2023/11/14 02:53:44;;;;;;;31.20;18.98;;;;;;;9.27;100.00;99474.78;5091238;28;20094;-44
2023/11/14 02:56:13;;;;;;;31.17;19.38;;;;;;;9.30;100.00;99466.56;5092224;28;20055;-45
2023/11/14 02:58:41;;;;;;;26.90;17.98;;;;;;;9.43;100.00;99484.25;5092114;28;20135;-44
2023/11/14 03:01:13;;;;;;;28.90;18.92;;;;;;;9.39;100.00;99477.47;5092241;28;20342;-45
2023/11/14 03:03:44;;;;;;;25.63;17.08;;;;;;;9.50;100.00;99479.38;5091756;28;20044;-48
2023/11/14 03:06:13;;;;;;;24.70;16.67;;;;;;;9.53;100.00;99475.66;5092067;28;20051;-46
2023/11/14 03:08:41;;;;;;;27.50;17.63;;;;;;;9.52;100.00;99466.81;5091943;28;20047;-46
2023/11/14 03:11:12;;;;;;;25.08;16.42;;;;;;;9.56;100.00;99473.66;5091987;28;20044;-45
2023/11/14 03:13:41;;;;;;;25.85;16.58;;;;;;;9.65;100.00;99496.09;5092001;28;20098;-45
2023/11/14 03:16:17;;;;;;;23.10;16.15;;;;;;;9.78;100.00;99491.66;5092152;28;20044;-45
2023/11/14 03:18:47;;;;;;;23.85;15.65;;;;;;;9.84;100.00;99517.00;5091690;28;20055;-46
2023/11/14 03:21:19;;;;;;;22.13;15.38;;;;;;;9.69;100.00;99493.16;5092031;28;20094;-46
2023/11/14 03:23:50;;;;;;;22.50;15.80;;;;;;;9.48;100.00;99493.78;5091534;28;20095;-46
2023/11/14 03:26:19;;;;;;;28.05;16.38;;;;;;;9.56;100.00;99481.66;5091684;28;20055;-44
2023/11/14 03:28:48;;;;;;;25.83;17.00;;;;;;;9.56;100.00;99475.47;5091861;28;20135;-44
2023/11/14 03:31:23;;;;;;;24.42;16.30;;;;;;;9.67;100.00;99465.78;5091731;28;20052;-45
2023/11/14 03:33:52;;;;;;;24.50;15.85;;;;;;;9.72;100.00;99452.97;5091609;28;20048;-45
2023/11/14 03:36:20;;;;;;;24.88;15.88;;;;;;;9.78;100.00;99456.19;5091534;28;20546;-43
2023/11/14 03:38:52;;;;;;;23.02;15.13;;;;;;;9.84;100.00;99443.28;5091028;28;20056;-46
2023/11/14 03:41:22;;;;;;;22.00;15.50;;;;;;;9.70;100.00;99456.72;5091626;28;20522;-45
2023/11/14 03:43:50;;;;;;;23.20;14.90;;;;;;;9.68;100.00;99455.97;5091384;28;20500;-46
2023/11/14 03:46:19;;;;;;;24.55;15.40;;;;;;;9.70;100.00;99444.25;5091378;28;20051;-45
2023/11/14 03:48:52;;;;;;;22.88;14.55;;;;;;;9.75;100.00;99447.47;5091210;28;20479;-44
2023/11/14 03:51:27;;;;;;;26.92;15.60;;;;;;;9.78;100.00;99445.53;5091314;28;20485;-44
2023/11/14 03:53:56;;;;;;;24.42;14.65;;;;;;;9.79;100.00;99447.25;5091345;28;20492;-44
2023/11/14 03:56:27;;;;;;;22.98;14.60;;;;;;;9.77;100.00;99449.16;5091226;28;20067;-45
2023/11/14 03:58:55;;;;;;;20.48;14.48;;;;;;;9.84;100.00;99455.75;5091269;28;20080;-44
2023/11/14 04:01:24;;;;;;;22.98;14.60;;;;;;;9.88;100.00;99454.59;5091251;28;20044;-45
2023/11/14 04:03:54;;;;;;;21.83;14.52;;;;;;;9.88;100.00;99465.25;5091388;28;20051;-45
2023/11/14 04:06:23;;;;;;;23.15;14.80;;;;;;;9.82;100.00;99444.34;5091342;28;20174;-45
2023/11/14 04:08:52;;;;;;;22.77;13.52;;;;;;;9.94;100.00;99488.78;5091074;28;20551;-45
2023/11/14 04:11:21;;;;;;;22.27;13.00;;;;;;;10.00;100.00;99483.03;5091192;28;20094;-47
2023/11/14 04:13:49;;;;;;;19.63;13.82;;;;;;;9.93;100.00;99465.75;5091039;28;20053;-44
2023/11/14 04:16:19;;;;;;;17.92;12.38;;;;;;;10.02;100.00;99471.31;5094773;28;20044;-46
2023/11/14 04:18:48;;;;;;;18.45;11.80;;;;;;;10.16;100.00;99483.66;5095485;28;20411;-44
2023/11/14 04:21:19;;;;;;;18.67;11.82;;;;;;;10.23;100.00;99492.97;5095340;28;20129;-44
2023/11/14 04:23:47;;;;;;;17.58;10.95;;;;;;;10.27;100.00;99494.44;5095250;28;20056;-44
2023/11/14 04:26:16;;;;;;;17.42;12.02;;;;;;;10.06;100.00;99482.63;5093918;28;20059;-44
2023/11/14 04:28:44;;;;;;;19.05;11.10;;;;;;;10.16;100.00;99478.34;5095572;28;20048;-44
2023/11/14 04:31:13;;;;;;;18.05;11.27;;;;;;;10.26;100.00;99474.09;5095338;28;20048;-46
2023/11/14 04:33:41;;;;;;;17.63;11.10;;;;;;;10.41;100.00;99463.28;5095205;28;20055;-45
2023/11/14 04:36:10;;;;;;;15.55;10.75;;;;;;;10.41;100.00;99458.78;5094906;28;20508;-46
2023/11/14 04:38:42;;;;;;;17.10;11.48;;;;;;;10.42;100.00;99462.31;5094969;28;20088;-45
2023/11/14 04:41:16;;;;;;;15.95;11.05;;;;;;;10.44;100.00;99465.75;5093493;28;20048;-46
2023/11/14 04:43:45;;;;;;;17.40;11.25;;;;;;;10.42;100.00;99473.88;5095018;28;20051;-46
2023/11/14 04:46:14;;;;;;;21.33;11.93;;;;;;;10.32;100.00;99472.78;5094798;28;20054;-45
2023/11/14 04:48:43;;;;;;;15.75;10.55;;;;;;;10.29;100.00;99470.34;5094799;28;20040;-45
2023/11/14 04:51:11;;;;;;;17.90;11.50;;;;;;;10.34;100.00;99486.88;5094634;28;20044;-45
2023/11/14 04:53:41;;;;;;;19.67;11.65;;;;;;;10.43;100.00;99502.22;5094449;28;20052;-44
2023/11/14 04:56:10;;;;;;;18.67;11.77;;;;;;;10.50;100.00;99507.94;5094722;28;20062;-45
2023/11/14 04:58:38;;;;;;;18.08;11.63;;;;;;;10.57;100.00;99510.06;5094500;28;20048;-44
2023/11/14 05:01:10;;;;;;;19.42;12.02;;;;;;;10.58;100.00;99518.91;5094569;28;20135;-44
2023/11/14 05:03:38;;;;;;;17.50;11.35;;;;;;;10.60;100.00;99535.66;5094505;28;20055;-44
2023/11/14 05:06:07;;;;;;;19.15;11.23;;;;;;;10.63;100.00;99534.63;5094151;28;20458;-45
2023/11/14 05:08:38;;;;;;;15.68;11.40;;;;;;;10.62;100.00;99536.44;5094109;28;20044;-45
2023/11/14 05:11:08;;;;;;;19.85;11.95;;;;;;;10.63;100.00;99535.47;5094188;28;20222;-46
2023/11/14 05:13:40;;;;;;;14.48;10.70;;;;;;;10.65;100.00;99541.53;5094149;28;20082;-45
2023/11/14 05:16:10;;;;;;;19.58;10.40;;;;;;;10.64;100.00;99537.16;5093788;28;20043;-45
2023/11/14 05:18:52;;;;;;;16.55;10.38;;;;;;;10.70;100.00;99535.84;5094293;28;20685;-45
2023/11/14 05:21:21;;;;;;;16.38;10.43;;;;;;;10.72;100.00;99529.47;5093957;28;20052;-45
2023/11/14 05:23:49;;;;;;;16.27;10.02;;;;;;;10.75;100.00;99529.22;5093744;28;20144;-44
2023/11/14 05:26:19;;;;;;;16.85;9.63;;;;;;;10.70;100.00;99534.03;5093726;28;20051;-46
2023/11/14 05:28:47;;;;;;;13.82;9.25;;;;;;;10.67;100.00;99523.59;5094207;28;20079;-44
2023/11/14 05:31:15;;;;;;;14.90;9.95;;;;;;;10.68;100.00;99527.97;5093601;28;20040;-45
2023/11/14 05:33:44;;;;;;;15.25;9.30;;;;;;;10.70;100.00;99535.84;5093674;28;20048;-44
2023/11/14 05:36:16;;;;;;;17.33;9.55;;;;;;;10.79;100.00;99536.03;5093661;28;20055;-44
2023/11/14 05:38:45;;;;;;;16.35;9.02;;;;;;;10.87;100.00;99536.34;5093645;28;20044;-45
2023/11/14 05:41:14;;;;;;;16.88;10.30;;;;;;;11.00;100.00;99543.44;5093416;28;20058;-45
2023/11/14 05:43:44;;;;;;;12.10;8.52;;;;;;;11.01;100.00;99538.03;5093345;28;20036;-45
2023/11/14 05:46:13;;;;;;;15.23;9.07;;;;;;;10.97;100.00;99536.53;5093433;28;20044;-44
2023/11/14 05:48:44;;;;;;;13.65;7.90;;;;;;;11.04;100.00;99542.28;5093554;28;20048;-45
2023/11/14 05:51:12;;;;;;;15.38;7.80;;;;;;;11.07;100.00;99542.88;5093544;28;20044;-44
2023/11/14 05:53:43;;;;;;;11.43;7.00;;;;;;;11.07;100.00;99539.38;5093326;28;20097;-44
2023/11/14 05:56:11;;;;;;;12.35;7.05;;;;;;;11.06;100.00;99540.34;5093207;28;20052;-51
2023/11/14 05:58:39;;;;;;;11.48;7.65;;;;;;;11.05;100.00;99557.31;5092098;28;20119;-45
2023/11/14 06:01:12;;;;;;;12.48;6.60;;;;;;;11.10;100.00;99560.53;5093632;28;20098;-45
2023/11/14 06:03:42;;;;;;;10.35;6.40;;;;;;;11.11;100.00;99563.06;5093625;28;20051;-45
2023/11/14 06:06:15;;;;;;;11.45;6.85;;;;;;;11.16;100.00;99568.91;5093478;28;20044;-44
2023/11/14 06:08:43;;;;;;;14.90;7.47;;;;;;;11.21;100.00;99571.25;5093010;28;20127;-45
2023/11/14 06:11:16;;;;;;;12.05;8.05;;;;;;;11.25;100.00;99564.72;5093440;28;20098;-44
2023/11/14 06:13:45;;;;;;;13.88;6.53;;;;;;;11.35;100.00;99559.53;5093416;28;20074;-46
2023/11/14 06:16:17;;;;;;;9.23;5.93;;;;;;;11.44;100.00;99565.06;5093582;28;20127;-46
2023/11/14 06:18:46;;;;;;;11.82;6.75;;;;;;;11.48;100.00;99563.00;5093152;28;20501;-44
2023/11/14 06:21:14;;;;;;;12.80;7.22;;;;;;;11.49;100.00;99567.41;5093035;28;20052;-45
2023/11/14 06:23:42;;;;;;;13.77;7.57;;;;;;;11.53;100.00;99566.19;5093015;28;20063;-46
2023/11/14 06:26:14;;;;;;;10.43;4.80;;;;;;;11.58;100.00;99566.72;5093255;28;20040;-44
2023/11/14 06:28:42;;;;;;;10.88;5.55;;;;;;;11.74;100.00;99561.88;5092726;28;20052;-46
2023/11/14 06:31:19;;;;;;;6.55;3.53;;;;;;;11.83;100.00;99560.38;5092129;28;20052;-46
2023/11/14 06:33:47;;;;;;;7.15;3.53;;;;;;;11.92;100.00;99545.47;5091418;28;20044;-44
2023/11/14 06:36:16;;;;;;;5.13;2.95;;;;;;;11.98;100.00;99520.94;5092737;28;20405;-46
2023/11/14 06:38:44;;;;;;;5.32;3.13;;;;;;;12.10;100.00;99535.19;5090217;28;20060;-45
2023/11/14 06:41:17;;;;;;;10.32;5.30;;;;;;;11.95;100.00;99535.38;5092478;28;20052;-47
2023/11/14 06:43:46;;;;;;;9.68;5.88;;;;;;;11.99;100.00;99550.22;5092397;28;20523;-45
2023/11/14 06:46:14;;;;;;;11.52;7.15;;;;;;;12.03;100.00;99570.38;5092445;28;20044;-45
2023/11/14 06:48:46;;;;;;;10.23;6.38;;;;;;;12.00;100.00;99589.34;5092352;28;20116;-46
2023/11/14 06:51:14;;;;;;;14.35;7.43;;;;;;;11.97;100.00;99584.25;5092308;28;20052;-44
2023/11/14 06:53:43;;;;;;;13.70;8.10;;;;;;;12.06;100.00;99587.16;5092416;28;20032;-46
2023/11/14 06:56:13;;;;;;;12.55;7.03;;;;;;;12.00;100.00;99584.00;5092287;28;20135;-45
2023/11/14 06:58:50;;;;;;;12.00;6.97;;;;;;;12.07;100.00;99588.88;5092282;28;20457;-49
2023/11/14 07:01:19;;;;;;;12.85;7.13;;;;;;;12.02;100.00;99587.41;5092169;28;20101;-46
2023/11/14 07:03:52;;;;;;;10.65;6.75;;;;;;;12.10;100.00;99586.81;5092201;28;20048;-45
2023/11/14 07:06:22;;;;;;;11.90;6.68;;;;;;;12.21;100.00;99559.25;5091912;28;20044;-45
2023/11/14 07:08:53;;;;;;;10.95;6.07;;;;;;;12.31;100.00;99549.53;5091697;28;20127;-45
2023/11/14 07:11:21;;;;;;;9.35;5.10;;;;;;;12.34;100.00;99549.28;5092133;28;20040;-46
2023/11/14 07:13:50;;;;;;;8.50;4.95;;;;;;;12.40;100.00;99567.53;5091749;28;20157;-44
2023/11/14 07:16:20;;;;;;;26.10;8.18;;;;;;;12.37;100.00;99573.13;5091960;28;20044;-45
2023/11/14 07:18:56;;;;;;;31.15;8.05;;;;;;;12.41;100.00;99555.88;5091817;28;20044;-45
2023/11/14 07:21:32;;;;;;;22.88;7.03;;;;;;;12.44;100.00;99560.97;5091636;28;20086;-44
2023/11/14 07:24:10;;;;;;;19.80;6.25;;;;;;;12.45;100.00;99543.09;5091327;28;20055;-44
2023/11/14 07:26:45;;;;;;;11.77;5.65;;;;;;;12.53;100.00;99528.13;5091808;28;20048;-44
2023/11/14 07:29:23;;;;;;;11.30;4.88;;;;;;;12.51;100.00;99540.78;5087842;28;20067;-45
2023/11/14 07:32:02;;;;;;;8.85;4.43;;;;;;;12.54;100.00;99545.88;5086826;28;20051;-43
2023/11/14 07:34:36;;;;;;;8.75;4.85;;;;;;;12.49;100.00;99555.25;5091249;28;20545;-44
2023/11/14 07:37:36;;;;;;;11.10;4.95;;;;;;;12.46;100.00;99542.16;5090140;28;20131;-44
2023/11/14 07:40:10;;;;;;;16.90;6.65;;;;;;;12.46;100.00;99575.09;5091368;28;20047;-44
2023/11/14 07:42:51;;;;;;;16.75;6.85;;;;;;;12.45;100.00;99562.69;5091361;28;20163;-45
2023/11/14 07:45:28;;;;;;;26.73;8.65;;;;;;;12.44;100.00;99552.09;5091364;28;20054;-45
2023/11/14 07:48:04;;;;;;;23.55;7.72;;;;;;;12.54;100.00;99555.72;5091469;28;20048;-45
2023/11/14 07:51:03;;;;;;;12.98;6.22;;;;;;;12.44;100.00;99582.34;5090527;28;20078;-44
2023/11/14 07:53:35;;;;;;;;;;;;;;;12.31;100.00;99584.28;5091902;28;20132;-46
2023/11/14 07:56:13;;;;;;;13.90;6.03;;;;;;;12.29;100.00;99560.34;5091471;28;20284;-44
2023/11/14 07:58:53;;;;;;;12.60;6.40;;;;;;;12.30;100.00;99554.03;5091444;28;20074;-45
2023/11/14 08:01:21;;;;;;;9.80;5.80;;;;;;;12.20;100.00;99569.09;5091428;28;20051;-45
2023/11/14 08:03:59;;;;;;;11.00;6.10;;;;;;;12.17;100.00;99579.19;5087952;28;20392;-43
2023/11/14 08:06:49;;;;;;;10.97;6.17;;;;;;;12.22;100.00;99609.06;5092368;28;20123;-43
2023/11/14 08:09:20;;;;;;;11.75;7.00;;;;;;;12.21;100.00;99618.91;5089500;28;20075;-46
2023/11/14 08:12:07;;;;;;;11.50;6.25;;;;;;;12.25;100.00;99622.19;5089106;28;20059;-44
2023/11/14 08:14:45;;;;;;;14.50;7.97;;;;;;;12.11;100.00;99622.41;5090253;28;20059;-44
2023/11/14 08:17:20;;;;;;;13.60;8.20;;;;;;;12.08;100.00;99638.69;5089802;28;20058;-44
2023/11/14 08:19:58;;;;;;;13.70;9.05;;;;;;;12.06;100.00;99613.88;5090770;28;20489;-45
2023/11/14 08:22:32;;;;;;;16.90;9.80;;;;;;;12.11;100.00;99611.72;5090497;28;20134;-43
2023/11/14 08:25:15;;;;;;;15.57;9.40;;;;;;;12.08;100.00;99596.78;5091055;28;20090;-44
2023/11/14 08:28:03;;;;;;;16.48;8.93;;;;;;;12.00;100.00;99577.81;5091088;28;20157;-44
2023/11/14 08:30:33;;;;;;;16.90;10.20;;;;;;;12.04;100.00;99580.09;5088650;28;20043;-43
2023/11/14 08:33:19;;;;;;;17.42;10.13;;;;;;;12.09;100.00;99603.81;5089774;28;20063;-44
2023/11/14 08:36:00;;;;;;;16.08;9.73;;;;;;;12.12;100.00;99602.72;5089948;28;20052;-44
2023/11/14 08:38:37;;;;;;;16.20;10.02;;;;;;;12.13;100.00;99591.91;5091176;28;20040;-44
2023/11/14 08:41:13;;;;;;;16.10;9.02;;;;;;;12.20;100.00;99657.31;5090964;28;20063;-43
2023/11/14 08:43:45;;;;;;;16.40;9.88;;;;;;;12.18;100.00;99666.44;5091419;28;20541;-44
2023/11/14 08:46:32;;;;;;;16.17;9.70;;;;;;;12.28;100.00;99675.47;5091091;28;20051;-43
2023/11/14 08:49:11;;;;;;;13.45;9.13;;;;;;;12.29;100.00;99679.84;5091799;28;20079;-44
2023/11/14 08:51:49;;;;;;;13.10;8.80;;;;;;;12.32;100.00;99683.13;5090907;28;20044;-44
2023/11/14 08:54:22;;;;;;;12.73;8.27;;;;;;;12.37;100.00;99690.81;5090994;28;20074;-45
2023/11/14 08:56:57;;;;;;;12.88;8.10;;;;;;;12.40;100.00;99685.22;5090589;28;20052;-43
2023/11/14 08:59:32;;;;;;;17.48;8.65;;;;;;;12.26;100.00;99707.66;5090381;28;20086;-43
2023/11/14 09:02:03;;;;;;;18.02;7.85;;;;;;;12.41;100.00;99705.63;5092696;28;20048;-44
2023/11/14 09:04:34;;;;;;;12.27;7.90;;;;;;;12.47;100.00;99667.72;5094550;28;20055;-43
2023/11/14 09:07:13;;;;;;;18.45;7.47;;;;;;;12.61;100.00;99696.09;5126896;27;20075;-43
2023/11/14 09:09:52;;;;;;;20.17;8.13;;;;;;;12.70;100.00;99722.13;5094422;28;20143;-44
2023/11/14 09:12:44;;;;;;;14.68;7.45;;;;;;;12.74;100.00;99722.72;5094250;28;20052;-44
2023/11/14 09:15:31;;;;;;;13.60;8.80;;;;;;;12.64;100.00;99737.78;5094482;28;20040;-44
2023/11/14 09:18:10;;;;;;;16.90;10.10;;;;;;;12.59;100.00;99757.75;5094084;28;20477;-45
2023/11/14 09:20:55;;;;;;;16.10;10.15;;;;;;;12.49;100.00;99754.06;5094264;28;20048;-43
2023/11/14 09:23:26;;;;;;;20.33;11.18;;;;;;;12.48;100.00;99751.50;5093781;28;20056;-44
2023/11/14 09:25:56;;;;;;;17.42;10.95;;;;;;;12.48;100.00;99732.78;5093927;28;20458;-44
2023/11/14 09:28:42;;;;;;;22.35;11.10;;;;;;;12.52;100.00;99766.34;5093971;28;20409;-43
2023/11/14 09:31:20;;;;;;;17.48;10.30;;;;;;;12.48;100.00;99759.53;5093912;28;20052;-45
2023/11/14 09:34:00;;;;;;;23.13;11.18;;;;;;;12.55;100.00;99747.41;5093868;28;20073;-45
2023/11/14 09:36:29;;;;;;;11.52;7.20;;;;;;;12.61;100.00;99730.84;5093946;28;20071;-44
2023/11/14 09:39:04;;;;;;;10.43;6.40;;;;;;;12.74;100.00;99722.72;5093740;28;20044;-45
2023/11/14 09:41:54;;;;;;;8.98;4.65;;;;;;;12.81;100.00;99745.38;5093818;28;20048;-43
2023/11/14 09:44:26;;;;;;;5.47;3.10;;;;;;;12.94;100.00;99746.16;5093399;28;20048;-44
2023/11/14 09:46:56;;;;;;;6.63;2.40;;;;;;;13.09;100.00;99754.78;5093337;28;20101;-45
2023/11/14 09:49:26;;;;;;;4.38;2.05;;;;;;;13.20;100.00;99729.88;5093794;28;20062;-44
2023/11/14 09:51:59;;;;;;;4.82;2.30;;;;;;;13.14;100.00;99718.66;5092145;28;20526;-44
2023/11/14 09:54:27;;;;;;;4.03;2.00;;;;;;;13.16;100.00;99691.75;5093845;28;20051;-43
2023/11/14 09:57:04;;;;;;;5.45;2.22;;;;;;;13.13;100.00;99689.34;5093336;28;20052;-45
2023/11/14 09:59:34;;;;;;;5.85;2.50;;;;;;;13.10;100.00;99682.38;5093177;28;20080;-43
2023/11/14 10:02:05;;;;;;;5.18;2.10;;;;;;;13.09;100.00;99680.66;5093530;28;20072;-43
2023/11/14 10:04:34;;;;;;;5.55;2.20;;;;;;;13.07;100.00;99673.75;5093486;28;20040;-44
2023/11/14 10:07:02;;;;;;;5.72;2.33;;;;;;;13.08;100.00;99665.59;5092920;28;20081;-42
2023/11/14 10:09:31;;;;;;;5.68;2.28;;;;;;;13.04;100.00;99656.09;5093008;28;20443;-45
2023/11/14 10:12:02;;;;;;;6.50;2.20;;;;;;;13.04;100.00;99668.66;5092323;28;20051;-44
2023/11/14 10:14:50;;;;;;;3.45;2.00;;;;;;;13.05;100.00;99665.00;5093020;28;20040;-44
2023/11/14 10:17:19;;;;;;;6.03;2.10;;;;;;;13.08;100.00;99668.25;5092701;28;20044;-43
2023/11/14 10:19:59;;;;;;;5.28;2.00;;;;;;;12.96;100.00;99679.94;5092540;28;20044;-44
2023/11/14 10:22:28;;;;;;;6.57;2.00;;;;;;;12.97;100.00;99687.00;5092529;28;20439;-44
2023/11/14 10:24:57;;;;;;;3.80;1.90;;;;;;;12.93;100.00;99698.91;5092843;28;20059;-44
2023/11/14 10:27:29;;;;;;;4.32;2.00;;;;;;;12.80;100.00;99700.84;5092405;28;20048;-44
2023/11/14 10:29:58;;;;;;;6.53;1.73;;;;;;;12.68;100.00;99694.63;5092325;28;20493;-45
2023/11/14 10:32:27;;;;;;;5.38;1.70;;;;;;;12.72;100.00;99704.13;5092725;28;20056;-44
2023/11/14 10:34:56;;;;;;;3.67;1.63;;;;;;;12.73;100.00;99689.75;5092561;28;20048;-44
2023/11/14 10:37:32;;;;;;;5.25;1.77;;;;;;;12.82;100.00;99691.72;5092575;28;20044;-44
2023/11/14 10:40:04;;;;;;;5.45;1.40;;;;;;;12.89;100.00;99673.38;5092300;28;20064;-46
2023/11/14 10:42:34;;;;;;;4.10;1.58;;;;;;;12.92;100.00;99665.09;5091648;28;20048;-44
2023/11/14 10:45:06;;;;;;;5.35;1.67;;;;;;;12.99;100.00;99662.78;5091750;28;20452;-43
2023/11/14 10:47:40;;;;;;;4.93;2.10;;;;;;;13.05;100.00;99673.88;5091983;28;20044;-44
2023/11/14 10:50:25;;;;;;;;;;;;;;;13.10;100.00;99660.94;5092137;28;20059;-43
2023/11/14 10:52:55;;;;;;;5.53;2.60;;;;;;;13.26;100.00;99667.81;5091946;28;19926;-43
2023/11/14 10:55:24;;;;;;;8.50;2.60;;;;;;;13.37;100.00;99678.50;5092512;28;20450;-42
2023/11/14 10:57:55;;;;;;;4.57;2.40;;;;;;;13.45;100.00;99670.69;5093833;28;20463;-45
2023/11/14 11:00:27;;;;;;;5.22;1.77;;;;;;;13.56;100.00;99678.72;5092628;28;20075;-44
2023/11/14 11:02:56;;;;;;;4.25;1.75;;;;;;;13.61;100.00;99687.25;5092583;28;20413;-43
2023/11/14 11:05:28;;;;;;;5.10;1.90;;;;;;;13.68;100.00;99683.06;5092251;28;20127;-43
2023/11/14 11:07:59;;;;;;;4.97;1.67;;;;;;;13.67;100.00;99697.44;5092307;28;20131;-43
2023/11/14 11:10:31;;;;;;;5.18;1.70;;;;;;;13.60;100.00;99714.97;5092069;28;20052;-44
2023/11/14 11:13:13;;;;;;;7.85;1.73;;;;;;;13.58;100.00;99724.97;5090542;28;20040;-44
2023/11/14 11:15:45;;;;;;;5.50;1.70;;;;;;;13.56;100.00;99710.88;5091938;28;20050;-44
2023/11/14 11:18:14;;;;;;;4.65;1.70;;;;;;;13.62;100.00;99688.94;5091929;28;20184;-43
2023/11/14 11:20:45;;;;;;;3.38;1.70;;;;;;;13.66;100.00;99679.66;5091891;28;20059;-44
2023/11/14 11:23:14;;;;;;;4.57;1.90;;;;;;;13.70;100.00;99682.94;5091459;28;20109;-43
2023/11/14 11:25:43;;;;;;;5.63;1.90;;;;;;;13.72;100.00;99692.56;5091763;28;20044;-43
2023/11/14 11:28:33;;;;;;;4.05;1.90;;;;;;;13.83;100.00;99683.63;5091787;28;20036;-43
2023/11/14 11:31:14;;;;;;;5.18;2.00;;;;;;;13.75;100.00;99694.97;5092001;28;20036;-44
2023/11/14 11:33:44;;;;;;;4.35;1.80;;;;;;;13.68;100.00;99701.81;5091760;28;20055;-43
2023/11/14 11:36:28;;;;;;;11.30;3.08;;;;;;;13.71;100.00;99703.41;5090602;28;20052;-43
2023/11/14 11:38:58;;;;;;;10.98;2.88;;;;;;;13.69;100.00;99698.16;5092010;28;20089;-43
2023/11/14 11:41:31;;;;;;;5.53;1.55;;;;;;;13.56;100.00;99678.72;5091792;28;20075;-44